createdAt,value
2019-01-29T00:00:51.181Z,32.13
2019-01-29T00:03:54.462Z,39.87
2019-01-29T00:06:57.695Z,38.87
2019-01-29T00:10:00.836Z,35.93
2019-01-29T00:13:04.193Z,30.13
2019-01-29T00:16:07.539Z,33.07
2019-01-29T00:19:10.782Z,30.73
2019-01-29T00:22:14.266Z,28.83
2019-01-29T00:25:17.577Z,26.50
2019-01-29T00:28:20.830Z,29.10
2019-01-29T00:31:23.970Z,23.20
2019-01-29T00:34:27.175Z,23.63
2019-01-29T00:37:30.402Z,21.63
2019-01-29T00:40:33.650Z,16.97
2019-01-29T00:43:36.898Z,19.33
2019-01-29T00:46:40.139Z,18.40
2019-01-29T00:49:43.491Z,20.70
2019-01-29T00:52:47.613Z,24.63
2019-01-29T00:55:52.829Z,24.57
2019-01-29T00:58:57.806Z,23.27
2019-01-29T01:02:03.689Z,25.27
2019-01-29T01:05:07.558Z,31.23
2019-01-29T01:08:10.859Z,31.00
2019-01-29T01:11:14.227Z,34.73
2019-01-29T01:14:17.348Z,32.13
2019-01-29T01:17:20.947Z,37.37
2019-01-29T01:20:24.152Z,31.43
2019-01-29T01:23:27.674Z,36.90
2019-01-29T01:26:30.858Z,40.73
2019-01-29T01:29:34.281Z,44.67
2019-01-29T01:32:37.674Z,43.77
2019-01-29T01:35:41.054Z,43.47
2019-01-29T01:38:44.141Z,39.93
2019-01-29T01:41:47.319Z,45.00
2019-01-29T01:44:50.527Z,43.93
2019-01-29T01:47:53.722Z,39.97
2019-01-29T01:50:57.015Z,38.37
2019-01-29T01:54:00.215Z,42.27
2019-01-29T01:57:03.510Z,32.23
2019-01-29T02:00:09.349Z,39.00
2019-01-29T02:03:12.772Z,40.30
2019-01-29T02:06:16.070Z,39.23
2019-01-29T02:09:19.393Z,45.50
2019-01-29T02:12:22.666Z,43.50
2019-01-29T02:15:25.960Z,35.03
2019-01-29T02:18:29.259Z,37.43
2019-01-29T02:21:32.577Z,34.60
2019-01-29T02:24:35.854Z,32.47
2019-01-29T02:27:39.127Z,35.90
2019-01-29T02:30:43.278Z,32.20
2019-01-29T02:33:46.354Z,30.07
2019-01-29T02:36:49.558Z,29.63
2019-01-29T02:39:52.746Z,27.47
2019-01-29T02:42:56.966Z,28.63
2019-01-29T02:46:00.058Z,30.00
2019-01-29T02:49:03.783Z,18.50
2019-01-29T02:52:07.266Z,23.40
2019-01-29T02:55:10.874Z,20.43
2019-01-29T02:58:14.081Z,16.93
2019-01-29T03:01:17.584Z,18.83
2019-01-29T03:04:20.662Z,12.80
2019-01-29T03:11:59.520Z,11.47
2019-01-29T03:15:03.493Z,10.97
2019-01-29T03:18:07.131Z,11.53
2019-01-29T03:21:10.595Z,14.83
2019-01-29T03:24:15.643Z,13.23
2019-01-29T03:27:19.147Z,14.83
2019-01-29T03:30:22.490Z,13.00
2019-01-29T03:33:26.052Z,11.27
2019-01-29T03:36:29.382Z,15.23
2019-01-29T03:39:32.683Z,12.97
2019-01-29T03:42:35.982Z,15.17
2019-01-29T03:45:39.215Z,11.97
2019-01-29T03:48:42.613Z,11.73
2019-01-29T03:51:46.150Z,15.23
2019-01-29T03:54:49.377Z,14.30
2019-01-29T03:57:52.719Z,16.83
2019-01-29T04:00:55.866Z,14.30
2019-01-29T04:03:59.065Z,14.87
2019-01-29T04:07:02.458Z,13.33
2019-01-29T04:10:06.279Z,15.67
2019-01-29T04:13:09.363Z,12.07
2019-01-29T04:16:12.663Z,12.67
2019-01-29T04:19:16.297Z,16.30
2019-01-29T04:22:20.227Z,11.50
2019-01-29T04:25:23.888Z,12.00
2019-01-29T04:28:27.231Z,11.33
2019-01-29T04:31:30.555Z,11.43
2019-01-29T04:34:34.693Z,13.87
2019-01-29T04:37:37.991Z,15.33
2019-01-29T04:40:41.442Z,13.97
2019-01-29T04:43:44.487Z,16.57
2019-01-29T04:46:47.869Z,16.17
2019-01-29T04:49:51.083Z,18.20
2019-01-29T04:52:54.215Z,14.60
2019-01-29T04:55:57.369Z,15.13
2019-01-29T04:59:00.833Z,10.97
2019-01-29T05:02:04.094Z,15.63
2019-01-29T05:05:09.236Z,13.77
2019-01-29T05:08:12.407Z,17.83
2019-01-29T05:11:15.647Z,17.43
2019-01-29T05:14:18.895Z,18.87
2019-01-29T05:17:22.241Z,19.13
2019-01-29T05:20:25.394Z,27.00
2019-01-29T05:23:28.555Z,20.37
2019-01-29T05:26:31.885Z,19.03
2019-01-29T05:29:35.126Z,18.90
2019-01-29T05:32:38.167Z,19.17
2019-01-29T05:35:41.414Z,18.90
2019-01-29T05:38:44.558Z,22.73
2019-01-29T05:41:47.874Z,19.87
2019-01-29T05:44:51.055Z,20.77
2019-01-29T05:47:54.247Z,20.53
2019-01-29T05:50:57.442Z,26.93
2019-01-29T05:54:00.742Z,21.07
2019-01-29T05:57:03.934Z,19.53
2019-01-29T06:00:10.918Z,22.70
2019-01-29T06:03:14.218Z,20.53
2019-01-29T06:06:18.538Z,22.57
2019-01-29T06:09:21.735Z,23.27
2019-01-29T06:12:24.936Z,24.63
2019-01-29T06:15:30.087Z,23.23
2019-01-29T06:18:33.172Z,19.90
2019-01-29T06:21:36.458Z,22.80
2019-01-29T06:24:39.554Z,24.83
2019-01-29T06:27:42.851Z,22.37
2019-01-29T06:30:45.947Z,19.30
2019-01-29T06:33:48.724Z,23.90
2019-01-29T06:36:51.890Z,19.50
2019-01-29T06:39:55.110Z,15.20
2019-01-29T06:42:58.329Z,21.33
2019-01-29T06:46:01.398Z,19.10
2019-01-29T06:49:04.698Z,14.13
2019-01-29T06:52:07.886Z,18.10
2019-01-29T06:55:13.143Z,15.93
2019-01-29T06:58:16.303Z,19.37
2019-01-29T07:01:19.458Z,16.80
2019-01-29T07:04:22.512Z,15.20
2019-01-29T07:07:25.647Z,17.67
2019-01-29T07:10:28.816Z,19.10
2019-01-29T07:13:32.042Z,18.37
2019-01-29T07:17:03.462Z,21.13
2019-01-29T07:20:09.478Z,19.43
2019-01-29T07:23:13.282Z,19.57
2019-01-29T07:26:17.129Z,24.10
2019-01-29T07:29:20.329Z,31.97
2019-01-29T07:32:23.559Z,28.27
2019-01-29T07:35:26.620Z,17.80
2019-01-29T07:38:29.863Z,19.30
2019-01-29T07:41:33.086Z,22.57
2019-01-29T07:44:36.566Z,22.57
2019-01-29T07:47:39.698Z,25.37
2019-01-29T07:50:42.930Z,21.47
2019-01-29T07:53:45.998Z,25.17
2019-01-29T07:56:49.167Z,37.33
2019-01-29T07:59:52.281Z,19.77
2019-01-29T08:02:55.411Z,19.70
2019-01-29T08:05:58.566Z,18.30
2019-01-29T08:09:01.809Z,19.20
2019-01-29T08:12:06.088Z,15.47
2019-01-29T08:15:10.318Z,17.77
2019-01-29T08:18:13.402Z,17.13
2019-01-29T08:21:16.642Z,21.67
2019-01-29T08:24:19.682Z,16.50
2019-01-29T08:27:23.134Z,18.37
2019-01-29T08:30:26.382Z,23.93
2019-01-29T08:33:29.642Z,18.70
2019-01-29T08:36:32.775Z,20.37
2019-01-29T08:39:36.019Z,20.10
2019-01-29T08:42:39.365Z,19.27
2019-01-29T08:45:42.557Z,20.93
2019-01-29T08:48:45.758Z,21.23
2019-01-29T08:51:48.954Z,21.53
2019-01-29T08:54:52.046Z,18.80
2019-01-29T08:57:55.141Z,19.67
2019-01-29T09:00:58.232Z,16.63
2019-01-29T09:04:01.327Z,21.90
2019-01-29T09:07:04.718Z,22.53
2019-01-29T09:10:09.930Z,19.70
2019-01-29T09:13:13.162Z,25.27
2019-01-29T09:16:17.834Z,23.63
2019-01-29T09:19:20.886Z,21.80
2019-01-29T09:22:24.082Z,26.13
2019-01-29T09:25:27.171Z,19.83
2019-01-29T09:28:30.366Z,32.93
2019-01-29T09:31:33.486Z,28.97
2019-01-29T09:34:36.554Z,20.00
2019-01-29T09:37:39.642Z,25.47
2019-01-29T09:40:42.940Z,17.13
2019-01-29T09:43:46.135Z,21.00
2019-01-29T09:46:49.234Z,23.27
2019-01-29T09:49:52.327Z,19.07
2019-01-29T09:52:56.442Z,26.97
2019-01-29T09:55:59.634Z,25.60
2019-01-29T09:59:02.935Z,23.37
2019-01-29T10:02:06.022Z,17.33
2019-01-29T10:05:09.222Z,20.80
2019-01-29T10:08:12.418Z,19.97
2019-01-29T10:11:15.630Z,25.50
2019-01-29T10:14:20.418Z,19.67
2019-01-29T10:17:25.799Z,17.50
2019-01-29T10:20:29.603Z,17.97
2019-01-29T10:23:33.353Z,20.03
2019-01-29T10:26:36.502Z,18.63
2019-01-29T10:29:39.849Z,17.00
2019-01-29T10:32:44.024Z,19.60
2019-01-29T10:35:47.154Z,18.27
2019-01-29T10:38:50.305Z,20.60
2019-01-29T10:41:53.804Z,20.10
2019-01-29T10:44:57.021Z,17.83
2019-01-29T10:48:00.230Z,18.20
2019-01-29T10:51:03.671Z,15.80
2019-01-29T10:54:07.675Z,16.90
2019-01-29T10:57:10.702Z,14.43
2019-01-29T11:00:16.873Z,13.80
2019-01-29T11:03:19.962Z,20.73
2019-01-29T11:06:23.205Z,15.67
2019-01-29T11:09:26.349Z,26.00
2019-01-29T11:12:29.582Z,20.40
2019-01-29T11:15:34.926Z,20.80
2019-01-29T11:18:38.749Z,16.77
2019-01-29T11:21:41.999Z,15.10
2019-01-29T11:24:45.410Z,16.07
2019-01-29T11:27:48.599Z,11.50
2019-01-29T11:30:52.353Z,10.57
2019-01-29T11:33:55.598Z,20.50
2019-01-29T11:36:58.946Z,14.07
2019-01-29T11:40:01.990Z,16.90
2019-01-29T11:43:06.050Z,17.60
2019-01-29T11:46:09.302Z,13.47
2019-01-29T11:49:12.440Z,14.70
2019-01-29T11:52:15.690Z,16.73
2019-01-29T11:55:18.973Z,11.73
2019-01-29T11:58:22.082Z,12.23
2019-01-29T12:01:26.653Z,7.57
2019-01-29T12:04:31.504Z,12.93
2019-01-29T12:07:34.778Z,16.30
2019-01-29T12:10:37.835Z,12.87
2019-01-29T12:13:41.106Z,15.00
2019-01-29T12:16:44.322Z,12.13
2019-01-29T12:19:47.670Z,15.63
2019-01-29T12:22:50.818Z,8.07
2019-01-29T12:25:55.693Z,11.37
2019-01-29T12:28:58.848Z,11.70
2019-01-29T12:32:02.087Z,21.27
2019-01-29T12:35:05.984Z,11.60
2019-01-29T12:38:09.075Z,14.70
2019-01-29T12:41:12.271Z,10.27
2019-01-29T12:44:15.566Z,15.43
2019-01-29T12:47:18.654Z,8.33
2019-01-29T12:50:22.572Z,12.53
2019-01-29T12:53:29.718Z,10.23
2019-01-29T12:56:32.851Z,16.33
2019-01-29T12:59:36.042Z,10.17
2019-01-29T13:02:39.144Z,17.10
2019-01-29T13:05:42.226Z,11.37
2019-01-29T13:08:45.323Z,16.17
2019-01-29T13:11:48.414Z,18.00
2019-01-29T13:14:51.512Z,10.97
2019-01-29T13:17:54.807Z,8.43
2019-01-29T13:20:57.901Z,10.30
2019-01-29T13:24:00.991Z,11.63
2019-01-29T13:27:04.394Z,9.37
2019-01-29T13:30:12.206Z,5.90
2019-01-29T13:33:15.462Z,9.77
2019-01-29T13:36:21.454Z,12.43
2019-01-29T13:39:24.631Z,14.83
2019-01-29T13:42:27.837Z,14.57
2019-01-29T13:45:31.493Z,9.57
2019-01-29T13:48:34.739Z,10.70
2019-01-29T13:51:37.886Z,10.43
2019-01-29T13:54:41.030Z,11.20
2019-01-29T13:57:44.486Z,13.07
2019-01-29T14:00:47.827Z,21.07
2019-01-29T14:03:50.966Z,12.60
2019-01-29T14:06:54.322Z,12.97
2019-01-29T14:09:57.566Z,19.47
2019-01-29T14:13:00.610Z,11.40
2019-01-29T14:16:07.110Z,7.57
2019-01-29T14:19:10.380Z,8.30
2019-01-29T14:22:13.610Z,9.17
2019-01-29T14:25:16.778Z,15.00
2019-01-29T14:28:20.074Z,16.17
2019-01-29T14:31:23.262Z,11.43
2019-01-29T14:34:26.562Z,11.50
2019-01-29T14:37:34.061Z,14.10
2019-01-29T14:40:39.337Z,14.17
2019-01-29T14:43:45.746Z,12.33
2019-01-29T14:46:49.034Z,12.83
2019-01-29T14:49:52.165Z,14.90
2019-01-29T14:52:55.494Z,18.23
2019-01-29T14:55:58.666Z,13.63
2019-01-29T14:59:01.862Z,15.13
2019-01-29T15:02:05.039Z,14.13
2019-01-29T15:05:08.377Z,14.67
2019-01-29T15:08:11.538Z,17.33
2019-01-29T15:11:14.852Z,13.40
2019-01-29T15:14:18.034Z,17.43
2019-01-29T15:17:44.223Z,15.80
2019-01-29T15:20:47.562Z,11.43
2019-01-29T15:23:50.834Z,17.83
2019-01-29T15:26:53.954Z,27.10
2019-01-29T15:29:57.087Z,17.03
2019-01-29T15:33:00.238Z,16.37
2019-01-29T15:36:05.562Z,12.77
2019-01-29T15:39:08.883Z,12.90
2019-01-29T15:42:12.230Z,15.67
2019-01-29T15:45:17.118Z,13.33
2019-01-29T15:48:20.254Z,22.47
2019-01-29T15:51:23.506Z,21.60
2019-01-29T15:54:26.798Z,14.93
2019-01-29T15:57:30.065Z,13.07
2019-01-29T16:00:33.409Z,20.77
2019-01-29T16:03:36.709Z,14.33
2019-01-29T16:06:41.022Z,10.53
2019-01-29T16:09:44.410Z,14.40
2019-01-29T16:12:47.514Z,12.03
2019-01-29T16:15:50.686Z,11.13
2019-01-29T16:18:53.801Z,18.10
2019-01-29T16:21:57.099Z,19.97
2019-01-29T16:25:00.294Z,16.70
2019-01-29T16:28:03.798Z,17.03
2019-01-29T16:31:06.889Z,19.03
2019-01-29T16:34:11.268Z,17.77
2019-01-29T16:37:14.375Z,16.53
2019-01-29T16:40:18.518Z,18.50
2019-01-29T16:43:21.618Z,15.53
2019-01-29T16:46:25.842Z,16.03
2019-01-29T16:49:28.926Z,17.17
2019-01-29T16:52:32.019Z,16.37
2019-01-29T16:55:35.217Z,18.00
2019-01-29T16:58:38.307Z,13.07
2019-01-29T17:01:41.406Z,19.27
2019-01-29T17:04:44.494Z,11.53
2019-01-29T17:07:47.735Z,18.23
2019-01-29T17:10:50.982Z,20.07
2019-01-29T17:13:55.242Z,20.17
2019-01-29T17:16:58.295Z,17.33
2019-01-29T17:20:01.641Z,14.50
2019-01-29T17:23:05.813Z,14.47
2019-01-29T17:26:09.122Z,19.43
2019-01-29T17:29:12.209Z,16.83
2019-01-29T17:32:15.756Z,14.07
2019-01-29T17:35:18.754Z,11.60
2019-01-29T17:38:23.270Z,14.93
2019-01-29T17:41:26.522Z,16.03
2019-01-29T17:44:29.944Z,18.63
2019-01-29T17:47:34.014Z,14.37
2019-01-29T17:50:38.502Z,16.70
2019-01-29T17:53:41.439Z,14.73
2019-01-29T17:56:45.501Z,24.13
2019-01-29T17:59:48.659Z,16.47
2019-01-29T18:02:51.907Z,14.40
2019-01-29T18:05:55.050Z,13.50
2019-01-29T18:08:58.395Z,17.47
2019-01-29T18:12:01.442Z,16.20
2019-01-29T18:15:06.078Z,23.27
2019-01-29T18:18:09.266Z,20.73
2019-01-29T18:21:12.475Z,19.17
2019-01-29T18:24:15.555Z,21.10
2019-01-29T18:27:18.782Z,14.73
2019-01-29T18:30:24.570Z,21.50
2019-01-29T18:33:27.842Z,15.67
2019-01-29T18:36:30.997Z,16.93
2019-01-29T18:39:40.762Z,24.47
2019-01-29T18:42:43.921Z,15.43
2019-01-29T18:45:47.343Z,20.40
2019-01-29T18:48:50.429Z,13.07
2019-01-29T18:51:53.782Z,23.20
2019-01-29T18:54:56.922Z,23.17
2019-01-29T18:58:00.174Z,17.27
2019-01-29T19:01:03.529Z,18.90
2019-01-29T19:04:06.766Z,20.53
2019-01-29T19:07:12.210Z,18.07
2019-01-29T19:10:16.949Z,20.47
2019-01-29T19:13:20.066Z,20.57
2019-01-29T19:16:23.334Z,19.20
2019-01-29T19:19:26.478Z,17.53
2019-01-29T19:22:29.617Z,21.57
2019-01-29T19:25:32.662Z,23.60
2019-01-29T19:28:36.017Z,18.90
2019-01-29T19:31:39.055Z,19.33
2019-01-29T19:34:42.153Z,20.47
2019-01-29T19:37:45.338Z,19.07
2019-01-29T19:40:48.438Z,23.53
2019-01-29T19:43:51.530Z,30.07
2019-01-29T19:46:54.728Z,23.07
2019-01-29T19:49:57.818Z,23.83
2019-01-29T19:53:01.015Z,23.17
2019-01-29T19:56:04.411Z,21.17
2019-01-29T19:59:07.642Z,21.70
2019-01-29T20:02:10.834Z,23.20
2019-01-29T20:05:14.100Z,26.63
2019-01-29T20:08:17.194Z,19.67
2019-01-29T20:11:20.385Z,22.03
2019-01-29T20:14:23.585Z,25.03
2019-01-29T20:17:26.674Z,28.33
2019-01-29T20:20:32.398Z,27.90
2019-01-29T20:23:35.810Z,23.70
2019-01-29T20:26:39.026Z,26.70
2019-01-29T20:29:42.218Z,23.30
2019-01-29T20:32:53.131Z,31.13
2019-01-29T20:35:50.319Z,26.47
2019-01-29T20:38:53.446Z,31.33
2019-01-29T20:42:06.616Z,36.07
2019-01-29T20:45:10.494Z,30.33
2019-01-29T20:48:13.678Z,26.70
2019-01-29T20:51:16.874Z,37.53
2019-01-29T20:54:20.194Z,24.23
2019-01-29T20:57:23.378Z,25.83
2019-01-29T21:00:28.742Z,31.90
2019-01-29T21:03:32.011Z,40.93
2019-01-29T21:06:35.354Z,27.70
2019-01-29T21:09:38.502Z,28.93
2019-01-29T21:12:41.634Z,31.70
2019-01-29T21:15:44.690Z,33.67
2019-01-29T21:18:47.823Z,31.17
2019-01-29T21:21:50.979Z,41.57
2019-01-29T21:24:54.210Z,31.40
2019-01-29T21:27:57.838Z,25.23
2019-01-29T21:31:01.494Z,33.77
2019-01-29T21:34:04.780Z,32.63
2019-01-29T21:37:09.104Z,44.57
2019-01-29T21:40:13.970Z,40.87
2019-01-29T21:43:18.319Z,41.50
2019-01-29T21:46:21.655Z,35.57
2019-01-29T21:49:24.878Z,32.13
2019-01-29T21:52:27.942Z,45.43
2019-01-29T21:55:31.207Z,39.53
2019-01-29T21:58:34.438Z,45.30
2019-01-29T22:01:37.978Z,41.50
2019-01-29T22:04:41.034Z,34.40
2019-01-29T22:07:44.174Z,40.47
2019-01-29T22:10:47.322Z,35.93
2019-01-29T22:13:50.660Z,44.90
2019-01-29T22:16:53.817Z,40.53
2019-01-29T22:19:57.369Z,37.60
2019-01-29T22:23:00.921Z,34.67
2019-01-29T22:26:04.182Z,32.97
2019-01-29T22:29:07.409Z,40.67
2019-01-29T22:32:10.582Z,35.73
2019-01-29T22:35:13.804Z,34.27
2019-01-29T22:38:17.110Z,35.97
2019-01-29T22:41:20.194Z,36.60
2019-01-29T22:44:23.454Z,34.77
2019-01-29T22:47:26.582Z,37.60
2019-01-29T22:50:31.738Z,38.13
2019-01-29T22:53:34.814Z,42.23
2019-01-29T22:56:38.068Z,40.80
2019-01-29T22:59:41.106Z,33.67
2019-01-29T23:02:44.301Z,40.00
2019-01-29T23:05:57.943Z,35.57
2019-01-29T23:09:01.141Z,37.00
2019-01-29T23:12:04.838Z,29.17
2019-01-29T23:15:10.262Z,38.00
2019-01-29T23:18:13.386Z,32.37
2019-01-29T23:21:16.477Z,38.23
2019-01-29T23:24:19.878Z,41.60
2019-01-29T23:27:23.075Z,37.23
2019-01-29T23:30:26.370Z,38.90
2019-01-29T23:33:29.561Z,39.60
2019-01-29T23:36:32.654Z,39.70
2019-01-29T23:39:35.752Z,37.63
2019-01-29T23:42:38.943Z,36.83
2019-01-29T23:45:43.062Z,34.03
2019-01-29T23:48:46.257Z,37.50
2019-01-29T23:51:50.526Z,39.70
2019-01-29T23:54:53.567Z,37.90
2019-01-29T23:57:56.765Z,33.73
